Columbus Municipal Airport
KOLU : now visible

Airfield :











YOU CAN JOIN US ON...

 
LOGIN :

Register | Disclaimer

   EN    FR    IT 

 









Legend :    VFR   Marginal VFR   IFR   Intensive IFR   Very Intensive IFR
Visi :
Ceiling :
>= 8 km
>= 3000ft
5 to 8 km
1000 to 3000 ft
1500m to 5 km
500 to 1000 ft
800 to 1500m
200 to 500 ft
< 800m
< 200 ft
Symbols :   Thunderstorms  Fog  Heavy snow  Heavy precipitations  Wind > 20 kt






- Airport Elevation : 1447 ft


KOLU - Columbus Municipal

CURRENT METAR :
  • 040756Z AUTO 21004KT 10SM CLR M05/M11 A3022 RMK AO2 SLP252 T10501111 FZRANO

EXPIRED METARs :
  • 040656Z AUTO 21005KT 10SM CLR M04/M11 A3023 RMK AO2 SLP257 T10391106 FZRANO
  • 040556Z AUTO 21007KT 10SM CLR M02/M11 A3024 RMK AO2 SLP262 T10221106 10011 21022 400501144 56016 FZRANO

TAF N/A
KZMP FIR / North America



MET'MAP, your aeronautical weather chart ! - Copyright ORBIFLY December 2007 - Disclaimer

ORBIFLY MET'MAP TEAM :

Programming & Development : Alexandra Zaïnal
Original concept : Baudouin d'Aumeries
Technical & hardware support : Manuel Goepfert
Assistance : Marc-Olivier Méhu




SOURCES & CREDITS :

   NOAA       Earth
Advisory